Crato, Brazil
Current Conditions -  °F | °C
As of 10:00 AM on Sunday 23 Nov 2014 (Local Time) from SBJU Reporting Station
Scattered Clouds Scattered Clouds  
Wind Chill: 86°   Ceiling: Unl
Heat Index: 90°   Visibility: 6mi
Dew Point: 70°   Wind: 9mph
Humidity: 58%   Direction: 120°ESE
Pressure: 30.03"   Gusts: NA
Location:  7.23°S, 39.41°W
Report Text: SBJU 231300Z 12008KT 9999 SCT020 30/21 Q1017
Loading
Personal Weather Stations






























Interactive Weather Map New forecast layout! Learn more

10-Day Weather Forecast

Advertisements
Track Severe Weather on mobile